Time;durP1;ratioP1;P1;durP2;ratioP2;P2;SDS_P1;SDS_P2;PMS_P1;PMS_P2;Temp;Humidity;BMP_temperature;BMP_pressure;BME280_temperature;BME280_humidity;BME280_pressure;Samples;Min_cycle;Max_cycle;Signal;HPM_P1;HPM_P2
2022/05/20 00:00:11;;;;;;;0.20;0.20;;;16.30;99.90;;;;;;5254147;23;20538;-89
2022/05/20 00:05:04;;;;;;;0.20;0.20;;;16.30;99.90;;;;;;5056402;23;20473;-96
2022/05/20 00:07:30;;;;;;;0.60;0.60;;;16.40;99.90;;;;;;5060545;23;20270;-90
2022/05/20 00:09:56;;;;;;;0.57;0.57;;;16.50;99.90;;;;;;5049155;28;20523;-90
2022/05/20 00:12:22;;;;;;;0.20;0.20;;;16.60;99.90;;;;;;5040091;28;20187;-96
2022/05/20 00:14:47;;;;;;;0.20;0.20;;;16.50;99.90;;;;;;5111809;23;20235;-96
2022/05/20 00:17:13;;;;;;;0.10;0.10;;;16.50;99.90;;;;;;5069172;23;20243;-96
2022/05/20 00:19:39;;;;;;;0.10;0.10;;;16.40;99.90;;;;;;5042547;28;20191;-93
2022/05/20 00:22:05;;;;;;;0.20;0.20;;;16.40;99.90;;;;;;5033430;28;20183;-94
2022/05/20 00:24:32;;;;;;;0.50;0.50;;;16.30;99.90;;;;;;5034257;28;20235;-93
2022/05/20 00:26:57;;;;;;;0.20;0.20;;;16.20;99.90;;;;;;5031756;28;20442;-96
2022/05/20 00:29:23;;;;;;;0.40;0.40;;;16.40;99.90;;;;;;5041383;28;20468;-96
2022/05/20 00:31:49;;;;;;;0.30;0.30;;;16.40;99.90;;;;;;5045410;28;20209;-93
2022/05/20 00:34:15;;;;;;;0.33;0.33;;;16.30;99.90;;;;;;5033566;28;20451;-95
2022/05/20 00:36:40;;;;;;;0.30;0.30;;;16.30;99.90;;;;;;5028249;28;20183;-94
2022/05/20 00:39:06;;;;;;;0.00;0.00;;;16.30;99.90;;;;;;5015591;23;20489;-96
2022/05/20 00:41:31;;;;;;;0.10;0.10;;;16.30;99.90;;;;;;4994866;28;20347;-93
2022/05/20 00:43:58;;;;;;;0.10;0.10;;;16.30;99.90;;;;;;5001915;28;20219;-96
2022/05/20 00:46:26;;;;;;;0.00;0.00;;;16.30;99.90;;;;;;4998265;28;20276;-95
2022/05/20 00:49:18;;;;;;;0.10;0.10;;;16.20;99.90;;;;;;4991684;28;20448;-96
2022/05/20 00:51:53;;;;;;;0.10;0.10;;;16.10;99.90;;;;;;4986717;28;20526;-91
2022/05/20 00:54:23;;;;;;;0.10;0.10;;;16.00;99.90;;;;;;4993845;28;20924;-94
2022/05/20 00:56:55;;;;;;;0.10;0.10;;;16.10;99.90;;;;;;4986459;28;20450;-95
2022/05/20 00:59:24;;;;;;;0.10;0.10;;;15.90;99.90;;;;;;4994355;28;20557;-93
2022/05/20 01:01:52;;;;;;;0.10;0.10;;;15.90;99.90;;;;;;4989342;28;20479;-95
2022/05/20 01:04:19;;;;;;;0.00;0.00;;;15.90;99.90;;;;;;5004935;28;20511;-96
2022/05/20 01:06:44;;;;;;;0.20;0.20;;;16.00;99.90;;;;;;5004437;28;20978;-96
2022/05/20 01:09:10;;;;;;;0.10;0.10;;;15.90;99.90;;;;;;4994150;28;20468;-94
2022/05/20 01:11:38;;;;;;;0.10;0.10;;;15.70;99.90;;;;;;4997016;28;20260;-96
2022/05/20 01:14:03;;;;;;;0.10;0.10;;;15.80;99.90;;;;;;5012744;28;20181;-96
2022/05/20 01:16:29;;;;;;;0.10;0.10;;;15.80;99.90;;;;;;4997250;28;20502;-88
2022/05/20 01:18:56;;;;;;;0.10;0.10;;;15.80;99.90;;;;;;4992648;28;20211;-96
2022/05/20 01:21:22;;;;;;;0.10;0.10;;;15.60;99.90;;;;;;4994969;28;20271;-95
2022/05/20 01:23:48;;;;;;;0.10;0.10;;;15.60;99.90;;;;;;4996647;28;20568;-93
2022/05/20 01:26:14;;;;;;;0.10;0.10;;;15.50;99.90;;;;;;4995263;28;20504;-94
2022/05/20 01:28:40;;;;;;;0.10;0.10;;;15.40;99.90;;;;;;4990794;28;20543;-95
2022/05/20 01:31:12;;;;;;;0.10;0.10;;;15.30;99.90;;;;;;5001194;28;20639;-93
2022/05/20 01:33:47;;;;;;;0.10;0.10;;;15.20;99.90;;;;;;4986558;28;20239;-92
2022/05/20 01:36:20;;;;;;;0.10;0.10;;;15.20;99.90;;;;;;4993413;28;20439;-94
2022/05/20 01:38:47;;;;;;;0.10;0.10;;;15.30;99.90;;;;;;4993627;28;20452;-96
2022/05/20 01:41:28;;;;;;;0.10;0.10;;;15.30;99.90;;;;;;5021180;28;20438;-96
2022/05/20 01:44:08;;;;;;;0.10;0.10;;;15.30;99.90;;;;;;5018274;28;20486;-96
2022/05/20 01:46:49;;;;;;;0.10;0.10;;;15.30;99.90;;;;;;5016707;28;20435;-93
2022/05/20 01:50:12;;;;;;;0.10;0.10;;;15.00;99.90;;;;;;4999050;28;20451;-90
2022/05/20 01:52:45;;;;;;;0.10;0.10;;;14.80;99.90;;;;;;4914017;29;20452;-93
2022/05/20 01:55:16;;;;;;;0.10;0.10;;;14.80;99.90;;;;;;4913489;29;20488;-96
2022/05/20 01:58:03;;;;;;;0.10;0.10;;;14.80;99.90;;;;;;4969205;28;20451;-94
2022/05/20 02:00:32;;;;;;;0.10;0.10;;;14.60;99.90;;;;;;5013224;28;20443;-87
2022/05/20 02:03:21;;;;;;;0.10;0.10;;;14.60;99.90;;;;;;5013466;28;20478;-91
2022/05/20 02:05:54;;;;;;;0.10;0.10;;;14.40;99.90;;;;;;5021632;28;20431;-94
2022/05/20 02:08:32;;;;;;;0.10;0.10;;;14.20;99.90;;;;;;5025645;28;20450;-96
2022/05/20 02:11:09;;;;;;;0.20;0.20;;;14.30;99.90;;;;;;5025139;28;20495;-95
2022/05/20 02:13:38;;;;;;;0.10;0.10;;;14.10;99.90;;;;;;5015239;28;20445;-95
2022/05/20 02:16:13;;;;;;;0.10;0.10;;;14.20;99.90;;;;;;5041558;28;20442;-94
2022/05/20 02:18:45;;;;;;;0.10;0.10;;;14.10;99.90;;;;;;5034080;28;20443;-96
2022/05/20 02:21:15;;;;;;;0.10;0.10;;;14.10;99.90;;;;;;5024090;28;20435;-96
2022/05/20 02:23:46;;;;;;;0.10;0.10;;;14.00;99.90;;;;;;5019977;28;20512;-92
2022/05/20 02:26:15;;;;;;;0.10;0.10;;;14.00;99.90;;;;;;5027019;28;20463;-86
2022/05/20 02:28:44;;;;;;;0.20;0.20;;;14.00;99.90;;;;;;5012531;28;20438;-94
2022/05/20 02:31:15;;;;;;;0.10;0.10;;;13.90;99.90;;;;;;5016124;28;20466;-94
2022/05/20 02:33:41;;;;;;;0.10;0.10;;;13.90;99.90;;;;;;5018160;28;20829;-91
2022/05/20 02:36:34;;;;;;;0.10;0.10;;;13.80;99.90;;;;;;5020152;28;20435;-94
2022/05/20 02:39:02;;;;;;;0.10;0.10;;;14.00;99.90;;;;;;5016051;28;20473;-90
2022/05/20 02:41:28;;;;;;;0.10;0.10;;;14.00;99.90;;;;;;5010700;28;20440;-92
2022/05/20 02:43:54;;;;;;;0.20;0.20;;;14.00;99.90;;;;;;5015523;28;20494;-91
2022/05/20 02:46:19;;;;;;;0.10;0.10;;;13.80;99.90;;;;;;5014822;28;20652;-93
2022/05/20 02:48:45;;;;;;;0.10;0.10;;;13.90;99.90;;;;;;5012774;28;20466;-93
2022/05/20 02:51:11;;;;;;;0.10;0.10;;;14.00;99.90;;;;;;5010580;28;20188;-94
2022/05/20 02:53:36;;;;;;;0.20;0.20;;;13.60;99.90;;;;;;5010231;28;20186;-95
2022/05/20 02:56:03;;;;;;;0.10;0.10;;;13.50;99.90;;;;;;5009564;28;20443;-87
2022/05/20 03:04:09;;;;;;;0.10;0.10;;;13.80;99.90;;;;;;5015878;28;20515;-93
2022/05/20 03:06:36;;;;;;;0.10;0.10;;;13.70;99.90;;;;;;5003679;28;20807;-91
2022/05/20 03:09:02;;;;;;;0.10;0.10;;;13.70;99.90;;;;;;5011306;28;20466;-92
2022/05/20 03:11:28;;;;;;;0.17;0.17;;;13.70;99.90;;;;;;5017690;28;20435;-90
2022/05/20 03:13:53;;;;;;;0.10;0.10;;;13.70;99.90;;;;;;5030666;28;20862;-92
2022/05/20 03:16:19;;;;;;;0.10;0.10;;;13.70;99.90;;;;;;5012552;28;20196;-92
2022/05/20 03:18:44;;;;;;;0.10;0.10;;;13.60;99.90;;;;;;5014238;28;20271;-91
2022/05/20 03:21:10;;;;;;;0.20;0.20;;;13.40;99.90;;;;;;5013190;28;20235;-93
2022/05/20 03:23:35;;;;;;;0.10;0.10;;;13.60;99.90;;;;;;5013959;28;20242;-92
2022/05/20 03:26:04;;;;;;;0.10;0.10;;;13.70;99.90;;;;;;5012177;28;20188;-93
2022/05/20 03:28:30;;;;;;;0.10;0.10;;;13.60;99.90;;;;;;5011839;28;20199;-94
2022/05/20 03:31:07;;;;;;;0.10;0.10;;;13.60;99.90;;;;;;5010082;28;20442;-91
2022/05/20 03:33:36;;;;;;;0.10;0.10;;;13.60;99.90;;;;;;5012134;28;20545;-93
2022/05/20 03:36:01;;;;;;;0.20;0.20;;;13.50;99.90;;;;;;5011811;28;20439;-92
2022/05/20 03:38:27;;;;;;;0.10;0.10;;;13.50;99.90;;;;;;5019382;28;20454;-92
2022/05/20 03:40:52;;;;;;;0.10;0.10;;;13.40;99.90;;;;;;5012909;28;20197;-92
2022/05/20 03:43:18;;;;;;;0.10;0.10;;;13.50;99.90;;;;;;5017947;28;20232;-92
2022/05/20 03:45:44;;;;;;;0.10;0.10;;;13.60;99.90;;;;;;5011105;28;20207;-92
2022/05/20 03:48:10;;;;;;;0.10;0.10;;;13.60;99.90;;;;;;5008748;28;20275;-92
2022/05/20 03:50:36;;;;;;;0.10;0.10;;;13.50;99.90;;;;;;5012398;28;20192;-91
2022/05/20 03:53:02;;;;;;;0.20;0.20;;;13.50;99.90;;;;;;5013724;28;20502;-92
2022/05/20 03:55:28;;;;;;;0.10;0.10;;;13.50;99.90;;;;;;5009244;28;20822;-92
2022/05/20 03:57:54;;;;;;;0.20;0.20;;;13.40;99.90;;;;;;5009659;28;20444;-93
2022/05/20 04:00:20;;;;;;;0.20;0.20;;;13.40;99.90;;;;;;5024014;28;20219;-93
2022/05/20 04:02:45;;;;;;;0.10;0.10;;;13.40;99.90;;;;;;5010127;28;21030;-92
2022/05/20 04:05:11;;;;;;;0.10;0.10;;;13.40;99.90;;;;;;5014437;28;20538;-92
2022/05/20 04:07:40;;;;;;;0.20;0.20;;;13.50;99.90;;;;;;5015632;28;20292;-92
2022/05/20 04:10:07;;;;;;;0.17;0.17;;;13.60;99.90;;;;;;4994225;28;20192;-93
2022/05/20 04:12:36;;;;;;;0.10;0.10;;;13.70;99.90;;;;;;5014269;28;20475;-94
2022/05/20 04:15:04;;;;;;;0.10;0.10;;;13.60;99.90;;;;;;5009164;28;20473;-93
2022/05/20 04:17:30;;;;;;;0.10;0.10;;;13.60;99.90;;;;;;5012557;28;20965;-94
2022/05/20 04:19:57;;;;;;;0.20;0.20;;;13.70;99.90;;;;;;5040066;28;20462;-92
2022/05/20 04:22:29;;;;;;;0.10;0.10;;;13.60;99.90;;;;;;5010661;28;20446;-93
2022/05/20 04:24:55;;;;;;;0.10;0.10;;;13.60;99.90;;;;;;5005629;28;20246;-93
2022/05/20 04:27:20;;;;;;;0.10;0.10;;;13.70;99.90;;;;;;5007955;28;20447;-94
2022/05/20 04:29:46;;;;;;;0.10;0.10;;;13.70;99.90;;;;;;5009313;28;20463;-96
2022/05/20 04:32:13;;;;;;;0.10;0.10;;;13.90;99.90;;;;;;5008757;28;20192;-92
2022/05/20 04:34:38;;;;;;;0.10;0.10;;;13.90;99.90;;;;;;5010175;28;20208;-94
2022/05/20 04:37:04;;;;;;;0.77;0.77;;;13.80;99.90;;;;;;5013781;28;20447;-95
2022/05/20 04:39:30;;;;;;;0.70;0.70;;;13.90;99.90;;;;;;5010774;28;20433;-94
2022/05/20 04:47:27;;;;;;;0.20;0.20;;;13.90;99.90;;;;;;5008038;28;20433;-94
2022/05/20 04:49:53;;;;;;;1.03;1.03;;;13.80;99.90;;;;;;5006225;28;20442;-92
2022/05/20 04:52:19;;;;;;;0.40;0.40;;;13.80;99.90;;;;;;5003674;28;20447;-91
2022/05/20 04:54:51;;;;;;;0.30;0.30;;;13.90;99.90;;;;;;5012379;28;20435;-93
2022/05/20 04:57:44;;;;;;;0.63;0.63;;;13.90;99.90;;;;;;5006350;28;20439;-94
2022/05/20 05:00:09;;;;;;;0.17;0.17;;;13.90;99.90;;;;;;5001023;28;20450;-94
2022/05/20 05:02:36;;;;;;;0.50;0.50;;;13.80;99.90;;;;;;5007091;28;20430;-93
2022/05/20 05:05:02;;;;;;;0.50;0.50;;;13.90;99.90;;;;;;5021546;28;20191;-89
2022/05/20 05:07:28;;;;;;;0.40;0.40;;;13.90;99.90;;;;;;5018981;28;20443;-90
2022/05/20 05:09:54;;;;;;;0.30;0.30;;;14.00;99.90;;;;;;5023026;28;20465;-89
2022/05/20 05:12:20;;;;;;;0.20;0.20;;;13.90;99.90;;;;;;5010862;28;20185;-91
2022/05/20 05:14:48;;;;;;;0.20;0.20;;;14.00;99.90;;;;;;5014321;28;20180;-90
2022/05/20 05:18:09;;;;;;;0.20;0.20;;;14.00;99.90;;;;;;5027865;28;20449;-92
2022/05/20 05:20:07;;;;;;;0.30;0.30;;;14.00;99.90;;;;;;5012438;28;20602;-96
2022/05/20 05:22:33;;;;;;;0.10;0.10;;;14.20;99.90;;;;;;5024081;28;20482;-94
2022/05/20 05:24:59;;;;;;;0.10;0.10;;;14.30;99.90;;;;;;5027372;28;20455;-95
2022/05/20 05:27:24;;;;;;;0.10;0.10;;;14.20;99.90;;;;;;5028584;28;20184;-95
2022/05/20 05:29:50;;;;;;;0.20;0.20;;;14.20;99.90;;;;;;5013721;28;20493;-94
2022/05/20 05:32:15;;;;;;;0.27;0.27;;;14.30;99.90;;;;;;5012852;28;20234;-94
2022/05/20 05:34:41;;;;;;;0.30;0.30;;;14.30;99.90;;;;;;5005690;28;20185;-91
2022/05/20 05:37:07;;;;;;;0.10;0.10;;;14.20;99.90;;;;;;5009537;28;20188;-92
2022/05/20 05:39:33;;;;;;;0.10;0.10;;;14.20;99.90;;;;;;5012226;28;20479;-90
2022/05/20 05:42:01;;;;;;;0.10;0.10;;;14.20;99.90;;;;;;5011245;28;20196;-92
2022/05/20 05:44:26;;;;;;;0.10;0.10;;;14.10;99.90;;;;;;5014275;28;20219;-94
2022/05/20 05:46:52;;;;;;;0.10;0.10;;;14.20;99.90;;;;;;5012173;28;20516;-91
2022/05/20 05:49:17;;;;;;;0.10;0.10;;;14.20;99.90;;;;;;5014320;28;20299;-91
2022/05/20 05:51:43;;;;;;;0.20;0.20;;;14.20;99.90;;;;;;5012352;28;20271;-89
2022/05/20 05:54:08;;;;;;;0.20;0.20;;;14.20;99.90;;;;;;5007907;28;20360;-88
2022/05/20 05:56:36;;;;;;;0.20;0.20;;;14.20;99.90;;;;;;5010372;28;20184;-89
2022/05/20 05:59:02;;;;;;;0.20;0.20;;;14.00;99.90;;;;;;5016790;28;20185;-90
2022/05/20 06:01:28;;;;;;;0.10;0.10;;;14.10;99.90;;;;;;5008034;28;20460;-90
2022/05/20 06:03:53;;;;;;;0.13;0.13;;;14.20;99.90;;;;;;5007196;28;20996;-88
2022/05/20 06:06:19;;;;;;;0.10;0.10;;;14.20;99.90;;;;;;5013661;28;20188;-91
2022/05/20 06:08:45;;;;;;;0.10;0.10;;;14.30;99.90;;;;;;5012998;28;20192;-91
2022/05/20 06:11:10;;;;;;;0.10;0.10;;;14.30;99.90;;;;;;5004283;28;20601;-90
2022/05/20 06:13:36;;;;;;;0.10;0.10;;;14.30;99.90;;;;;;4994891;28;20193;-89
2022/05/20 06:16:01;;;;;;;0.10;0.10;;;14.20;99.90;;;;;;5012199;28;20291;-91
2022/05/20 06:18:28;;;;;;;0.10;0.10;;;14.20;99.90;;;;;;5014803;28;20189;-90
2022/05/20 06:20:54;;;;;;;0.10;0.10;;;14.20;99.90;;;;;;5012962;28;20219;-88
2022/05/20 06:23:19;;;;;;;0.10;0.10;;;14.20;99.90;;;;;;5012014;28;20552;-91
2022/05/20 06:25:45;;;;;;;0.10;0.10;;;14.30;99.90;;;;;;5014270;28;20447;-93
2022/05/20 06:28:16;;;;;;;0.10;0.10;;;14.30;99.90;;;;;;5012244;28;20199;-91
2022/05/20 06:30:43;;;;;;;0.10;0.10;;;14.30;99.90;;;;;;4999837;28;20180;-92
2022/05/20 06:33:09;;;;;;;0.10;0.10;;;14.20;99.90;;;;;;5009332;28;20442;-92
2022/05/20 06:41:06;;;;;;;0.10;0.10;;;14.30;99.90;;;;;;5001382;28;20545;-88
2022/05/20 06:43:32;;;;;;;0.10;0.10;;;14.20;99.90;;;;;;5009020;28;20470;-90
2022/05/20 06:46:00;;;;;;;0.27;0.27;;;14.20;99.90;;;;;;5009364;28;20473;-94
2022/05/20 06:48:38;;;;;;;0.10;0.10;;;14.30;99.90;;;;;;5007152;28;20448;-91
2022/05/20 06:51:05;;;;;;;0.10;0.10;;;14.30;99.90;;;;;;5011300;28;20958;-89
2022/05/20 06:53:31;;;;;;;0.10;0.10;;;14.30;99.90;;;;;;5010043;28;20961;-91
2022/05/20 06:55:57;;;;;;;0.70;0.70;;;14.10;99.90;;;;;;5013134;28;20451;-91
2022/05/20 06:58:22;;;;;;;0.27;0.27;;;14.20;99.90;;;;;;5010130;28;20288;-93
2022/05/20 07:00:48;;;;;;;0.10;0.10;;;14.20;99.90;;;;;;5011984;28;20458;-91
2022/05/20 07:03:14;;;;;;;0.20;0.20;;;14.30;99.90;;;;;;5009039;28;21890;-91
2022/05/20 07:05:39;;;;;;;0.10;0.10;;;14.20;99.90;;;;;;5011076;28;20176;-90
2022/05/20 07:08:05;;;;;;;0.10;0.10;;;14.30;99.90;;;;;;5013374;28;20188;-93
2022/05/20 07:10:31;;;;;;;0.20;0.20;;;14.20;99.90;;;;;;5011471;28;20196;-91
2022/05/20 07:12:56;;;;;;;0.10;0.10;;;14.20;99.90;;;;;;5008187;28;20185;-90
2022/05/20 07:15:22;;;;;;;0.10;0.10;;;14.30;99.90;;;;;;5011567;28;20286;-90
2022/05/20 07:17:48;;;;;;;0.10;0.10;;;14.40;99.90;;;;;;5006471;28;20558;-92
2022/05/20 07:20:14;;;;;;;0.10;0.10;;;14.30;99.90;;;;;;5010076;28;20196;-92
2022/05/20 07:22:39;;;;;;;0.10;0.10;;;14.30;99.90;;;;;;5010720;28;21002;-90
2022/05/20 07:25:06;;;;;;;0.10;0.10;;;14.20;99.90;;;;;;5009260;28;20467;-92
2022/05/20 07:27:31;;;;;;;0.10;0.10;;;14.20;99.90;;;;;;5011396;28;20667;-91
2022/05/20 07:29:57;;;;;;;0.20;0.20;;;14.20;99.90;;;;;;5012826;28;20471;-93
2022/05/20 07:32:22;;;;;;;0.10;0.10;;;14.30;99.90;;;;;;5011261;28;20266;-92
2022/05/20 07:34:48;;;;;;;0.10;0.10;;;14.30;99.90;;;;;;5006096;28;20211;-94
2022/05/20 07:37:14;;;;;;;0.10;0.10;;;14.40;99.90;;;;;;5011399;28;20194;-90
2022/05/20 07:39:40;;;;;;;0.20;0.20;;;14.40;99.90;;;;;;5015193;28;20220;-94
2022/05/20 07:42:06;;;;;;;0.10;0.10;;;14.40;99.90;;;;;;5015084;28;20191;-93
2022/05/20 07:44:33;;;;;;;0.10;0.10;;;14.20;99.90;;;;;;5015839;28;20481;-95
2022/05/20 07:46:59;;;;;;;0.20;0.20;;;14.30;99.90;;;;;;5015240;28;20534;-93
2022/05/20 07:49:24;;;;;;;0.10;0.10;;;14.20;99.90;;;;;;5011321;28;21018;-95
2022/05/20 07:51:52;;;;;;;0.10;0.10;;;14.30;99.90;;;;;;5008030;28;20659;-88
2022/05/20 07:54:23;;;;;;;0.10;0.10;;;14.20;99.90;;;;;;5006161;28;20655;-92
2022/05/20 07:57:01;;;;;;;0.10;0.10;;;14.20;99.90;;;;;;5008756;28;20481;-90
2022/05/20 07:59:53;;;;;;;0.10;0.10;;;14.30;99.90;;;;;;5007962;28;20443;-89
2022/05/20 08:02:29;;;;;;;0.10;0.10;;;14.40;99.90;;;;;;4997839;28;20456;-88
2022/05/20 08:05:00;;;;;;;0.10;0.10;;;14.40;99.90;;;;;;5005666;28;20478;-87
2022/05/20 08:07:36;;;;;;;0.10;0.10;;;14.50;99.90;;;;;;5006494;28;20824;-87
2022/05/20 08:10:05;;;;;;;0.10;0.10;;;14.50;99.90;;;;;;5018448;28;20452;-87
2022/05/20 08:12:30;;;;;;;0.10;0.10;;;14.30;99.90;;;;;;5005883;28;20570;-88
2022/05/20 08:14:56;;;;;;;0.20;0.20;;;14.40;99.90;;;;;;4998782;28;20529;-90
2022/05/20 08:17:26;;;;;;;0.10;0.10;;;14.50;99.90;;;;;;5001466;28;20189;-88
2022/05/20 08:19:53;;;;;;;0.10;0.10;;;14.60;99.90;;;;;;5005803;28;20250;-89
2022/05/20 08:22:23;;;;;;;0.10;0.10;;;14.60;99.90;;;;;;5005777;28;20435;-91
2022/05/20 08:24:53;;;;;;;0.10;0.10;;;14.60;99.90;;;;;;5005014;28;20488;-89
2022/05/20 08:27:24;;;;;;;0.10;0.10;;;14.70;99.90;;;;;;5007982;28;20923;-89
2022/05/20 08:29:50;;;;;;;0.10;0.10;;;14.70;99.90;;;;;;5010711;28;20451;-89
2022/05/20 08:32:15;;;;;;;0.10;0.10;;;14.90;99.90;;;;;;5009151;28;20447;-93
2022/05/20 08:34:43;;;;;;;0.10;0.10;;;15.00;99.90;;;;;;5010252;28;20530;-89
2022/05/20 08:37:09;;;;;;;0.20;0.20;;;15.00;99.90;;;;;;5009360;28;20211;-90
2022/05/20 08:39:34;;;;;;;0.10;0.10;;;14.80;99.90;;;;;;5008303;28;20463;-89
2022/05/20 08:42:00;;;;;;;0.10;0.10;;;14.90;99.90;;;;;;5007913;28;20196;-90
2022/05/20 08:44:25;;;;;;;0.10;0.10;;;14.80;99.90;;;;;;5010854;28;20231;-91
2022/05/20 08:47:21;;;;;;;0.10;0.10;;;14.90;99.90;;;;;;5008279;28;21006;-88
2022/05/20 08:49:47;;;;;;;0.10;0.10;;;14.90;99.90;;;;;;5006870;28;20576;-88
2022/05/20 08:52:12;;;;;;;0.10;0.10;;;15.00;99.90;;;;;;4999345;28;20435;-88
2022/05/20 08:54:41;;;;;;;0.10;0.10;;;15.20;99.90;;;;;;5003024;28;20442;-88
2022/05/20 08:57:18;;;;;;;0.10;0.10;;;15.20;99.90;;;;;;5004191;28;20215;-87
2022/05/20 08:59:44;;;;;;;0.10;0.10;;;15.10;99.90;;;;;;5002915;28;20458;-88
2022/05/20 09:02:11;;;;;;;0.10;0.10;;;15.00;99.90;;;;;;5005194;28;20447;-87
2022/05/20 09:04:36;;;;;;;0.10;0.10;;;14.90;99.90;;;;;;5005682;28;20215;-89
2022/05/20 09:07:09;;;;;;;0.10;0.10;;;15.00;99.90;;;;;;4998847;28;20803;-89
2022/05/20 09:09:56;;;;;;;0.10;0.10;;;15.20;99.90;;;;;;5015935;28;20186;-88
2022/05/20 09:12:38;;;;;;;0.10;0.10;;;14.90;99.90;;;;;;5006510;28;20489;-89
2022/05/20 09:18:01;;;;;;;0.10;0.10;;;15.10;99.90;;;;;;5006988;28;20505;-88
2022/05/20 09:20:27;;;;;;;0.10;0.10;;;15.10;99.90;;;;;;5018133;28;20439;-88
2022/05/20 09:23:00;;;;;;;0.10;0.10;;;15.10;99.90;;;;;;5006997;28;20450;-89
2022/05/20 09:25:32;;;;;;;0.10;0.10;;;15.20;99.90;;;;;;5000641;28;20867;-87
2022/05/20 09:28:19;;;;;;;0.10;0.10;;;15.20;99.90;;;;;;5003119;28;20443;-88
2022/05/20 09:30:50;;;;;;;0.10;0.10;;;15.10;99.90;;;;;;4998119;28;20921;-88
2022/05/20 09:33:24;;;;;;;0.10;0.10;;;15.20;99.90;;;;;;5009217;28;20443;-89
2022/05/20 09:36:01;;;;;;;0.10;0.10;;;15.50;99.90;;;;;;5004245;28;20443;-88
2022/05/20 09:38:44;;;;;;;0.10;0.10;;;15.80;99.90;;;;;;5007159;28;20446;-89
2022/05/20 09:41:20;;;;;;;0.10;0.10;;;16.00;99.90;;;;;;5007625;28;20471;-89
2022/05/20 09:43:56;;;;;;;0.10;0.10;;;16.80;99.90;;;;;;5017909;28;20561;-88
2022/05/20 09:46:32;;;;;;;0.10;0.10;;;17.30;99.90;;;;;;4993239;28;20451;-88
2022/05/20 09:49:03;;;;;;;0.10;0.10;;;17.70;99.90;;;;;;5016840;28;21007;-88
2022/05/20 09:51:57;;;;;;;0.10;0.10;;;18.10;99.90;;;;;;5009486;28;20514;-86
2022/05/20 09:54:26;;;;;;;0.10;0.10;;;18.60;99.90;;;;;;5006460;28;20443;-88
2022/05/20 09:57:26;;;;;;;0.10;0.10;;;18.30;99.90;;;;;;4990665;28;20444;-88
2022/05/20 10:00:05;;;;;;;0.10;0.10;;;17.60;99.90;;;;;;4984730;28;20518;-88
2022/05/20 10:02:41;;;;;;;0.10;0.10;;;18.30;99.90;;;;;;5007435;28;20458;-87
2022/05/20 10:05:25;;;;;;;0.10;0.10;;;18.40;99.90;;;;;;5013798;28;20843;-89
2022/05/20 10:08:15;;;;;;;0.10;0.00;;;18.00;99.90;;;;;;5002489;28;20458;-87
2022/05/20 10:10:43;;;;;;;0.10;0.00;;;18.40;99.90;;;;;;5001131;28;20512;-87
2022/05/20 10:13:25;;;;;;;0.10;0.10;;;18.30;99.90;;;;;;5005559;28;20443;-88
2022/05/20 10:15:57;;;;;;;0.10;0.00;;;17.90;99.90;;;;;;5004259;28;20498;-88
2022/05/20 10:18:58;;;;;;;0.10;0.00;;;17.90;99.90;;;;;;4997940;28;20453;-85
2022/05/20 10:22:15;;;;;;;0.10;0.00;;;18.30;99.90;;;;;;4967110;28;20532;-92
2022/05/20 10:25:07;;;;;;;0.10;0.10;;;19.00;99.90;;;;;;4970101;28;20491;-89
2022/05/20 10:27:54;;;;;;;0.10;0.10;;;18.80;99.90;;;;;;5007464;28;20431;-88
2022/05/20 10:33:13;;;;;;;0.10;0.00;;;18.80;99.90;;;;;;5011336;28;20438;-87
2022/05/20 10:35:57;;;;;;;0.10;0.00;;;19.00;99.90;;;;;;5008788;28;20439;-91
2022/05/20 10:38:48;;;;;;;0.10;0.00;;;18.10;99.90;;;;;;5009259;28;20445;-91
2022/05/20 10:41:34;;;;;;;0.10;0.00;;;18.40;99.90;;;;;;5013595;28;20451;-92
2022/05/20 10:50:10;;;;;;;0.10;0.00;;;19.40;99.90;;;;;;5011349;28;20535;-91
2022/05/20 10:53:11;;;;;;;0.10;0.00;;;20.70;99.90;;;;;;5006754;28;20533;-92
2022/05/20 10:56:09;;;;;;;0.10;0.00;;;20.20;99.90;;;;;;5008628;28;20622;-88
2022/05/20 10:58:55;;;;;;;0.10;0.00;;;20.00;99.90;;;;;;5031111;28;20440;-90
2022/05/20 11:01:27;;;;;;;0.10;0.10;;;19.80;99.90;;;;;;5013370;28;20509;-88
2022/05/20 11:03:52;;;;;;;0.10;0.00;;;19.60;99.90;;;;;;5010846;28;20542;-89
2022/05/20 11:06:30;;;;;;;0.10;0.00;;;19.00;99.90;;;;;;5011069;28;20447;-93
2022/05/20 11:09:07;;;;;;;0.10;0.00;;;19.40;99.90;;;;;;5011107;28;20185;-93
2022/05/20 11:11:55;;;;;;;0.10;0.00;;;20.00;99.90;;;;;;5013291;28;20448;-92
2022/05/20 11:14:48;;;;;;;0.10;0.00;;;20.60;99.90;;;;;;5010934;28;20454;-92
2022/05/20 11:17:39;;;;;;;0.10;0.00;;;21.00;99.90;;;;;;5013264;28;20469;-86
2022/05/20 11:20:57;;;;;;;0.10;0.00;;;21.60;99.90;;;;;;5008719;28;20789;-85
2022/05/20 11:24:01;;;;;;;0.10;0.00;;;20.90;99.90;;;;;;4955270;28;20488;-90
2022/05/20 11:26:54;;;;;;;0.10;0.00;;;21.00;99.90;;;;;;5001648;28;20446;-91
2022/05/20 11:29:55;;;;;;;0.10;0.00;;;20.90;99.90;;;;;;5008609;28;20783;-89
2022/05/20 11:32:46;;;;;;;0.00;0.00;;;21.00;99.90;;;;;;5003214;28;20443;-89
2022/05/20 11:35:50;;;;;;;0.00;0.00;;;20.70;99.90;;;;;;5012342;28;20486;-88
2022/05/20 11:38:29;;;;;;;0.00;0.00;;;20.00;99.90;;;;;;5005586;28;20454;-90
2022/05/20 11:41:25;;;;;;;0.00;0.00;;;20.10;99.90;;;;;;5010009;28;20439;-94
2022/05/20 11:44:25;;;;;;;0.00;0.00;;;20.90;99.90;;;;;;5026438;28;20840;-91
2022/05/20 11:47:13;;;;;;;0.00;0.00;;;20.80;99.90;;;;;;5007229;28;20459;-89
2022/05/20 11:49:50;;;;;;;0.10;0.00;;;21.10;99.90;;;;;;5007087;28;20435;-87
2022/05/20 11:52:37;;;;;;;0.10;0.00;;;21.20;99.90;;;;;;5004975;28;20959;-87
2022/05/20 11:55:23;;;;;;;0.10;0.00;;;20.30;99.90;;;;;;5005010;28;20520;-86
2022/05/20 11:57:54;;;;;;;0.10;0.00;;;20.60;99.90;;;;;;5007578;28;20440;-88
2022/05/20 12:00:21;;;;;;;0.10;0.00;;;20.10;99.90;;;;;;5008231;28;20432;-91
2022/05/20 12:02:55;;;;;;;0.10;0.00;;;20.50;99.90;;;;;;5004334;28;20458;-89
2022/05/20 12:05:24;;;;;;;0.10;0.00;;;20.90;99.90;;;;;;5009712;28;20456;-90
2022/05/20 12:07:50;;;;;;;0.10;0.00;;;20.80;99.90;;;;;;5012412;28;20448;-91
2022/05/20 12:10:18;;;;;;;0.10;0.00;;;20.70;99.90;;;;;;5010092;28;20438;-87
2022/05/20 12:12:53;;;;;;;0.10;0.00;;;20.60;99.90;;;;;;5003616;28;20254;-91
2022/05/20 12:15:21;;;;;;;0.10;0.00;;;20.00;99.90;;;;;;5007908;28;20454;-90
2022/05/20 12:17:50;;;;;;;0.10;0.00;;;19.70;99.90;;;;;;5004477;28;20450;-89
2022/05/20 12:26:00;;;;;;;0.10;0.00;;;19.60;99.90;;;;;;5002720;28;20493;-87
2022/05/20 12:28:25;;;;;;;0.10;0.00;;;19.80;99.90;;;;;;5003830;28;20458;-88
2022/05/20 12:31:11;;;;;;;0.10;0.00;;;20.10;99.90;;;;;;5004001;28;20455;-89
2022/05/20 12:34:11;;;;;;;0.10;0.00;;;20.60;99.90;;;;;;5009292;28;20647;-87
2022/05/20 12:36:44;;;;;;;0.10;0.00;;;20.80;99.90;;;;;;5003757;28;20447;-88
2022/05/20 12:39:19;;;;;;;0.10;0.00;;;21.50;99.90;;;;;;5006644;28;20529;-88
2022/05/20 12:41:48;;;;;;;0.10;0.00;;;21.40;99.90;;;;;;5027901;28;20427;-89
2022/05/20 12:44:17;;;;;;;0.10;0.00;;;21.20;99.90;;;;;;5006798;28;20573;-88
2022/05/20 12:47:13;;;;;;;0.10;0.00;;;20.80;99.90;;;;;;4992963;28;20454;-92
2022/05/20 12:49:47;;;;;;;0.10;0.00;;;21.10;99.90;;;;;;5009879;28;20876;-89
2022/05/20 12:52:26;;;;;;;0.10;0.00;;;21.10;99.90;;;;;;5016656;28;20439;-88
2022/05/20 12:55:11;;;;;;;0.10;0.00;;;21.20;99.90;;;;;;5048338;28;20418;-87
2022/05/20 12:57:54;;;;;;;0.10;0.00;;;21.70;99.90;;;;;;5019585;28;20502;-87
2022/05/20 13:00:28;;;;;;;0.10;0.00;;;22.00;99.90;;;;;;5034908;28;20458;-88
2022/05/20 13:03:03;;;;;;;0.10;0.00;;;21.60;99.90;;;;;;5017057;28;20439;-87
2022/05/20 13:05:47;;;;;;;0.10;0.00;;;21.30;99.90;;;;;;5014846;28;20988;-87
2022/05/20 13:08:18;;;;;;;0.10;0.00;;;21.20;99.90;;;;;;4996541;28;20463;-87
2022/05/20 13:10:44;;;;;;;0.10;0.00;;;21.90;99.90;;;;;;5011360;28;20443;-88
2022/05/20 13:13:14;;;;;;;0.10;0.00;;;21.40;99.90;;;;;;5027410;28;20439;-87
2022/05/20 13:15:43;;;;;;;0.10;0.00;;;21.70;99.90;;;;;;5020868;28;20191;-88
2022/05/20 13:18:31;;;;;;;0.10;0.00;;;22.10;99.90;;;;;;5007359;28;20446;-87
2022/05/20 13:20:59;;;;;;;0.07;0.00;;;21.10;99.90;;;;;;5005808;28;20776;-88
2022/05/20 13:23:31;;;;;;;0.10;0.00;;;21.80;99.90;;;;;;4990809;28;20908;-87
2022/05/20 13:25:57;;;;;;;0.10;0.00;;;22.30;99.90;;;;;;5019426;28;20455;-88
2022/05/20 13:28:36;;;;;;;0.07;0.00;;;22.60;99.90;;;;;;5009555;28;20435;-87
2022/05/20 13:31:11;;;;;;;0.07;0.00;;;22.20;99.90;;;;;;5009902;28;20292;-87
2022/05/20 13:33:39;;;;;;;0.03;0.00;;;22.10;99.90;;;;;;5008401;28;20537;-87
2022/05/20 13:36:07;;;;;;;0.10;0.10;;;21.90;99.90;;;;;;5007046;28;21015;-87
2022/05/20 13:38:39;;;;;;;0.10;0.00;;;21.50;99.90;;;;;;5006159;28;20998;-86
2022/05/20 13:41:07;;;;;;;0.10;0.00;;;21.50;99.90;;;;;;5043077;28;20454;-88
2022/05/20 13:43:36;;;;;;;0.10;0.00;;;21.60;99.90;;;;;;5027771;28;20481;-87
2022/05/20 13:51:46;;;;;;;0.10;0.00;;;22.20;99.90;;;;;;4998571;28;20446;-88
2022/05/20 13:54:32;;;;;;;0.10;0.00;;;22.30;99.90;;;;;;5009559;28;20451;-86